createdAt,value
2017-10-11T00:01:45.556Z,47.77
2017-10-11T00:04:12.517Z,47.93
2017-10-11T00:06:38.697Z,48.60
2017-10-11T00:09:05.027Z,47.53
2017-10-11T00:11:31.229Z,43.93
2017-10-11T00:13:57.448Z,46.37
2017-10-11T00:16:23.675Z,44.37
2017-10-11T00:18:49.898Z,43.17
2017-10-11T00:21:16.089Z,47.67
2017-10-11T00:23:43.050Z,45.80
2017-10-11T00:26:09.236Z,43.57
2017-10-11T00:28:35.588Z,42.63
2017-10-11T00:31:02.509Z,43.10
2017-10-11T00:33:28.720Z,43.30
2017-10-11T00:35:55.974Z,43.53
2017-10-11T00:38:22.198Z,39.67
2017-10-11T00:40:48.417Z,42.70
2017-10-11T00:43:15.817Z,39.03
2017-10-11T00:45:42.001Z,42.73
2017-10-11T00:48:08.314Z,43.40
2017-10-11T00:50:34.511Z,41.63
2017-10-11T00:53:01.437Z,39.60
2017-10-11T00:55:27.669Z,38.37
2017-10-11T00:57:53.957Z,43.80
2017-10-11T01:00:20.173Z,45.57
2017-10-11T01:02:46.362Z,39.20
2017-10-11T01:05:12.581Z,41.37
2017-10-11T01:07:38.802Z,43.70
2017-10-11T01:10:05.040Z,40.53
2017-10-11T01:12:31.250Z,41.97
2017-10-11T01:14:57.523Z,42.70
2017-10-11T01:17:39.429Z,48.80
2017-10-11T01:20:05.652Z,38.30
2017-10-11T01:22:31.857Z,38.20
2017-10-11T01:24:58.106Z,43.60
2017-10-11T01:27:25.062Z,41.10
2017-10-11T01:29:51.348Z,43.50
2017-10-11T01:32:17.552Z,39.40
2017-10-11T01:34:43.777Z,46.47
2017-10-11T01:37:09.993Z,45.40
2017-10-11T01:39:36.221Z,37.83
2017-10-11T01:42:02.433Z,45.90
2017-10-11T01:44:28.662Z,41.50
2017-10-11T01:46:54.862Z,47.43
2017-10-11T01:49:21.824Z,43.90
2017-10-11T01:51:48.029Z,52.07
2017-10-11T01:54:14.273Z,48.63
2017-10-11T01:56:41.229Z,51.93
2017-10-11T01:59:07.493Z,53.00
2017-10-11T02:01:33.680Z,51.63
2017-10-11T02:03:59.874Z,48.73
2017-10-11T02:06:26.090Z,52.70
2017-10-11T02:08:52.273Z,49.53
2017-10-11T02:11:18.481Z,59.67
2017-10-11T02:13:45.413Z,49.43
2017-10-11T02:16:11.625Z,47.50
2017-10-11T02:18:37.837Z,48.77
2017-10-11T02:21:04.057Z,49.70
2017-10-11T02:23:30.301Z,46.77
2017-10-11T02:25:57.262Z,45.80
2017-10-11T02:28:23.465Z,40.27
2017-10-11T02:30:49.682Z,47.07
2017-10-11T02:33:15.904Z,44.43
2017-10-11T02:35:42.132Z,45.90
2017-10-11T02:38:08.313Z,39.27
2017-10-11T02:40:35.243Z,35.73
2017-10-11T02:43:01.460Z,41.17
2017-10-11T02:45:27.643Z,38.73
2017-10-11T02:47:53.871Z,34.50
2017-10-11T02:50:20.073Z,36.47
2017-10-11T02:52:47.014Z,42.93
2017-10-11T02:55:13.958Z,26.67
2017-10-11T02:57:40.157Z,34.63
2017-10-11T03:00:06.346Z,28.80
2017-10-11T03:02:32.533Z,27.40
2017-10-11T03:04:58.741Z,35.77
2017-10-11T03:07:24.921Z,28.57
2017-10-11T03:09:51.135Z,30.83
2017-10-11T03:12:18.061Z,28.00
2017-10-11T03:14:44.274Z,25.33
2017-10-11T03:17:10.471Z,23.77
2017-10-11T03:19:37.054Z,25.60
2017-10-11T03:22:03.242Z,20.03
2017-10-11T03:24:29.457Z,21.50
2017-10-11T03:26:55.645Z,27.37
2017-10-11T03:29:22.596Z,23.93
2017-10-11T03:31:49.541Z,24.20
2017-10-11T03:34:16.469Z,19.70
2017-10-11T03:36:42.709Z,21.07
2017-10-11T03:39:09.641Z,18.53
2017-10-11T03:41:35.905Z,24.53
2017-10-11T03:44:02.099Z,19.87
2017-10-11T03:46:28.312Z,26.27
2017-10-11T03:48:54.507Z,19.23
2017-10-11T03:51:20.686Z,21.53
2017-10-11T03:53:46.885Z,20.70
2017-10-11T03:56:13.098Z,19.77
2017-10-11T03:58:39.308Z,18.70
2017-10-11T04:01:05.614Z,20.37
2017-10-11T04:03:32.552Z,22.73
2017-10-11T04:05:59.480Z,19.07
2017-10-11T04:08:25.682Z,20.00
2017-10-11T04:10:51.896Z,19.87
2017-10-11T04:13:18.141Z,21.37
2017-10-11T04:15:44.323Z,18.80
2017-10-11T04:18:11.372Z,22.67
2017-10-11T04:20:37.556Z,22.03
2017-10-11T04:23:03.817Z,20.00
2017-10-11T04:25:30.757Z,21.97
2017-10-11T04:27:57.748Z,22.10
2017-10-11T04:30:24.004Z,16.30
2017-10-11T04:32:50.261Z,21.30
2017-10-11T04:35:16.458Z,18.10
2017-10-11T04:37:42.714Z,24.03
2017-10-11T04:40:09.663Z,16.83
2017-10-11T04:42:36.643Z,22.63
2017-10-11T04:45:02.861Z,17.13
2017-10-11T04:47:29.096Z,19.40
2017-10-11T04:49:55.292Z,19.17
2017-10-11T04:52:22.354Z,18.53
2017-10-11T04:54:48.565Z,17.87
2017-10-11T04:57:15.477Z,15.20
2017-10-11T04:59:41.701Z,15.03
2017-10-11T05:02:07.908Z,19.93
2017-10-11T05:04:34.107Z,17.50
2017-10-11T05:07:00.305Z,17.90
2017-10-11T05:09:26.552Z,19.80
2017-10-11T05:11:52.777Z,26.00
2017-10-11T05:14:19.727Z,23.40
2017-10-11T05:16:46.696Z,21.20
2017-10-11T05:19:12.912Z,20.83
2017-10-11T05:21:39.100Z,25.73
2017-10-11T05:24:05.354Z,22.37
2017-10-11T05:26:32.273Z,20.17
2017-10-11T05:28:58.564Z,29.13
2017-10-11T05:31:24.759Z,21.67
2017-10-11T05:33:51.696Z,20.23
2017-10-11T05:36:18.650Z,19.90
2017-10-11T05:38:45.594Z,20.73
2017-10-11T05:41:12.537Z,24.27
2017-10-11T05:43:39.467Z,25.33
2017-10-11T05:46:05.713Z,25.50
2017-10-11T05:48:32.634Z,22.17
2017-10-11T05:50:58.922Z,22.50
2017-10-11T05:53:25.105Z,24.17
2017-10-11T05:55:51.417Z,22.00
2017-10-11T05:58:17.608Z,21.70
2017-10-11T06:00:43.861Z,14.63
2017-10-11T06:03:10.033Z,19.37
2017-10-11T06:05:37.006Z,20.90
2017-10-11T06:08:03.185Z,18.40
2017-10-11T06:10:29.365Z,20.60
2017-10-11T06:12:55.588Z,19.27
2017-10-11T06:15:21.808Z,25.50
2017-10-11T06:17:48.766Z,24.90
2017-10-11T06:20:14.949Z,50.93
2017-10-11T06:22:41.896Z,33.33
2017-10-11T06:25:08.830Z,34.20
2017-10-11T06:27:35.062Z,32.40
2017-10-11T06:30:01.254Z,41.20
2017-10-11T06:32:27.485Z,36.07
2017-10-11T06:34:53.682Z,36.07
2017-10-11T06:37:19.925Z,33.47
2017-10-11T06:39:46.142Z,33.30
2017-10-11T06:42:12.337Z,32.27
2017-10-11T06:44:39.286Z,32.00
2017-10-11T06:47:06.210Z,24.77
2017-10-11T06:49:32.427Z,26.00
2017-10-11T06:51:58.638Z,29.97
2017-10-11T06:54:24.890Z,24.70
2017-10-11T06:56:51.120Z,21.63
2017-10-11T06:59:17.324Z,21.20
2017-10-11T07:01:43.525Z,26.53
2017-10-11T07:04:09.739Z,21.90
2017-10-11T07:06:36.703Z,20.00
2017-10-11T07:09:02.997Z,24.67
2017-10-11T07:11:29.926Z,26.80
2017-10-11T07:13:56.148Z,19.83
2017-10-11T07:16:22.526Z,19.07
2017-10-11T07:18:48.731Z,18.10
2017-10-11T07:21:15.674Z,22.13
2017-10-11T07:23:42.629Z,20.50
2017-10-11T07:26:09.565Z,17.80
2017-10-11T07:28:36.517Z,16.53
2017-10-11T07:31:03.485Z,17.93
2017-10-11T07:33:29.669Z,16.70
2017-10-11T07:35:55.885Z,15.50
2017-10-11T07:38:22.950Z,17.03
2017-10-11T07:40:49.877Z,18.73
2017-10-11T07:43:16.117Z,16.07
2017-10-11T07:45:42.369Z,18.03
2017-10-11T07:48:09.365Z,15.60
2017-10-11T07:50:35.601Z,19.23
2017-10-11T07:53:02.553Z,17.50
2017-10-11T07:55:28.848Z,17.00
2017-10-11T07:57:55.056Z,17.37
2017-10-11T08:00:21.390Z,15.70
2017-10-11T08:02:47.636Z,22.27
2017-10-11T08:05:13.977Z,16.83
2017-10-11T08:07:40.925Z,13.87
2017-10-11T08:10:07.213Z,16.17
2017-10-11T08:12:34.157Z,18.00
2017-10-11T08:15:01.180Z,18.43
2017-10-11T08:17:27.430Z,16.10
2017-10-11T08:19:54.375Z,15.13
2017-10-11T08:22:21.334Z,16.80
2017-10-11T08:24:47.583Z,17.70
2017-10-11T08:27:13.806Z,19.43
2017-10-11T08:29:40.065Z,21.70
2017-10-11T08:32:06.301Z,18.10
2017-10-11T08:34:32.518Z,22.87
2017-10-11T08:36:58.810Z,24.30
2017-10-11T08:39:25.044Z,23.53
2017-10-11T08:41:51.266Z,22.23
2017-10-11T08:44:17.518Z,21.17
2017-10-11T08:46:43.781Z,15.70
2017-10-11T08:49:10.055Z,15.40
2017-10-11T08:51:36.307Z,20.37
2017-10-11T08:54:02.525Z,24.70
2017-10-11T08:56:28.754Z,17.87
2017-10-11T08:58:54.937Z,13.73
2017-10-11T09:01:21.873Z,22.07
2017-10-11T09:03:48.093Z,12.20
2017-10-11T09:06:14.329Z,14.00
2017-10-11T09:08:40.512Z,13.00
2017-10-11T09:11:06.773Z,16.30
2017-10-11T09:13:33.016Z,13.70
2017-10-11T09:15:59.309Z,9.63
2017-10-11T09:18:25.546Z,11.73
2017-10-11T09:20:51.781Z,11.20
2017-10-11T09:23:18.110Z,10.90
2017-10-11T09:25:44.304Z,9.90
2017-10-11T09:28:10.582Z,10.93
2017-10-11T09:30:36.889Z,11.33
2017-10-11T09:33:03.210Z,11.00
2017-10-11T09:35:29.398Z,21.03
2017-10-11T09:37:56.413Z,10.60
2017-10-11T09:40:22.633Z,15.23
2017-10-11T09:42:48.873Z,11.70
2017-10-11T09:45:15.105Z,12.17
2017-10-11T09:47:41.321Z,11.33
2017-10-11T09:50:07.558Z,13.10
2017-10-11T09:52:33.837Z,12.70
2017-10-11T09:55:00.117Z,12.23
2017-10-11T09:57:26.426Z,12.53
2017-10-11T09:59:52.648Z,11.63
2017-10-11T10:02:18.993Z,10.70
2017-10-11T10:04:45.266Z,14.57
2017-10-11T10:07:11.517Z,12.17
2017-10-11T10:09:37.757Z,13.40
2017-10-11T10:12:04.017Z,12.43
2017-10-11T10:14:30.336Z,17.43
2017-10-11T10:16:56.570Z,12.20
2017-10-11T10:19:29.785Z,10.60
2017-10-11T10:21:56.055Z,13.10
2017-10-11T10:24:22.270Z,12.97
2017-10-11T10:26:48.470Z,12.03
2017-10-11T10:29:14.756Z,11.03
2017-10-11T10:31:40.977Z,10.97
2017-10-11T10:34:07.173Z,11.10
2017-10-11T10:36:34.093Z,13.50
2017-10-11T10:39:00.301Z,11.63
2017-10-11T10:41:26.505Z,15.50
2017-10-11T10:43:52.709Z,17.60
2017-10-11T10:46:18.922Z,12.40
2017-10-11T10:48:45.894Z,10.37
2017-10-11T10:51:12.827Z,13.13
2017-10-11T10:53:39.055Z,12.40
2017-10-11T10:56:05.249Z,10.40
2017-10-11T10:58:31.491Z,12.20
2017-10-11T11:00:58.421Z,10.00
2017-10-11T11:03:24.710Z,10.47
2017-10-11T11:05:50.927Z,12.40
2017-10-11T11:08:17.156Z,12.47
2017-10-11T11:10:43.381Z,11.60
2017-10-11T11:13:09.606Z,14.10
2017-10-11T11:15:35.814Z,9.80
2017-10-11T11:18:02.764Z,9.37
2017-10-11T11:20:29.689Z,10.17
2017-10-11T11:22:56.667Z,8.90
2017-10-11T11:25:22.901Z,10.40
2017-10-11T11:27:49.178Z,9.67
2017-10-11T11:30:15.968Z,10.43
2017-10-11T11:32:42.411Z,10.47
2017-10-11T11:35:09.051Z,8.70
2017-10-11T11:37:35.261Z,8.50
2017-10-11T11:40:01.641Z,7.83
2017-10-11T11:42:27.837Z,7.10
2017-10-11T11:44:54.090Z,7.57
2017-10-11T11:47:20.353Z,6.80
2017-10-11T11:49:46.629Z,6.27
2017-10-11T11:52:12.857Z,5.90
2017-10-11T11:54:39.164Z,5.80
2017-10-11T11:57:05.383Z,8.00
2017-10-11T11:59:32.434Z,12.83
2017-10-11T12:01:58.717Z,6.70
2017-10-11T12:04:24.945Z,5.53
2017-10-11T12:06:51.164Z,6.23
2017-10-11T12:09:17.380Z,7.10
2017-10-11T12:11:43.589Z,4.90
2017-10-11T12:14:09.773Z,6.23
2017-10-11T12:16:35.997Z,6.87
2017-10-11T12:19:02.209Z,8.13
2017-10-11T12:21:29.489Z,5.87
2017-10-11T12:23:56.565Z,7.00
2017-10-11T12:26:22.770Z,6.27
2017-10-11T12:28:49.777Z,6.13
2017-10-11T12:31:15.961Z,5.70
2017-10-11T12:33:42.237Z,6.40
2017-10-11T12:36:08.457Z,5.70
2017-10-11T12:38:34.925Z,6.60
2017-10-11T12:41:01.162Z,9.00
2017-10-11T12:43:28.121Z,4.80
2017-10-11T12:45:55.110Z,4.43
2017-10-11T12:48:21.373Z,4.07
2017-10-11T12:50:47.718Z,5.43
2017-10-11T12:53:13.942Z,8.03
2017-10-11T12:55:40.965Z,5.63
2017-10-11T12:58:07.204Z,7.53
2017-10-11T13:00:33.552Z,5.23
2017-10-11T13:03:00.507Z,4.20
2017-10-11T13:05:27.450Z,5.13
2017-10-11T13:07:54.386Z,3.70
2017-10-11T13:10:21.350Z,3.70
2017-10-11T13:12:47.562Z,6.43
2017-10-11T13:15:13.771Z,4.80
2017-10-11T13:17:40.742Z,5.10
2017-10-11T13:20:07.677Z,11.83
2017-10-11T13:22:34.693Z,4.80
2017-10-11T13:25:00.906Z,6.57
2017-10-11T13:27:27.168Z,5.20
2017-10-11T13:29:53.466Z,5.67
2017-10-11T13:32:19.696Z,6.77
2017-10-11T13:34:45.940Z,5.60
2017-10-11T13:37:12.133Z,5.77
2017-10-11T13:39:38.353Z,7.37
2017-10-11T13:42:04.609Z,8.73
2017-10-11T13:44:30.822Z,9.00
2017-10-11T13:46:57.061Z,11.67
2017-10-11T13:49:23.294Z,5.00
2017-10-11T13:51:49.496Z,6.80
2017-10-11T13:54:15.751Z,12.93
2017-10-11T13:56:41.977Z,5.97
2017-10-11T13:59:08.211Z,6.10
2017-10-11T14:01:34.450Z,7.50
2017-10-11T14:04:00.658Z,5.33
2017-10-11T14:06:26.878Z,6.00
2017-10-11T14:08:53.072Z,5.77
2017-10-11T14:11:20.022Z,6.40
2017-10-11T14:13:46.206Z,5.33
2017-10-11T14:16:12.430Z,5.90
2017-10-11T14:18:38.649Z,5.73
2017-10-11T14:21:04.910Z,6.70
2017-10-11T14:23:31.237Z,8.47
2017-10-11T14:25:57.470Z,8.37
2017-10-11T14:28:24.488Z,6.50
2017-10-11T14:30:50.737Z,10.70
2017-10-11T14:33:16.969Z,8.23
2017-10-11T14:35:43.181Z,8.33
2017-10-11T14:38:09.382Z,7.43
2017-10-11T14:40:35.602Z,16.03
2017-10-11T14:43:01.784Z,9.77
2017-10-11T14:45:28.833Z,13.73
2017-10-11T14:47:55.859Z,11.40
2017-10-11T14:50:22.078Z,11.10
2017-10-11T14:52:48.293Z,9.60
2017-10-11T14:55:14.534Z,10.30
2017-10-11T14:57:40.766Z,13.37
2017-10-11T15:00:07.038Z,11.03
2017-10-11T15:02:33.982Z,11.40
2017-10-11T15:05:00.934Z,11.63
2017-10-11T15:07:27.191Z,14.00
2017-10-11T15:09:53.427Z,12.30
2017-10-11T15:12:19.707Z,15.23
2017-10-11T15:14:46.662Z,10.03
2017-10-11T15:17:12.921Z,11.30
2017-10-11T15:19:39.191Z,11.83
2017-10-11T15:22:05.407Z,10.43
2017-10-11T15:24:31.609Z,10.00
2017-10-11T15:26:57.840Z,9.63
2017-10-11T15:29:24.081Z,8.83
2017-10-11T15:31:50.258Z,11.70
2017-10-11T15:34:17.206Z,9.87
2017-10-11T15:36:44.193Z,10.20
2017-10-11T15:39:10.398Z,9.87
2017-10-11T15:41:36.630Z,9.93
2017-10-11T15:44:02.818Z,15.37
2017-10-11T15:46:29.839Z,9.13
2017-10-11T15:48:56.066Z,12.17
2017-10-11T15:51:22.993Z,9.27
2017-10-11T15:53:50.261Z,9.97
2017-10-11T15:56:16.458Z,7.70
2017-10-11T15:58:42.652Z,9.53
2017-10-11T16:01:09.661Z,7.97
2017-10-11T16:03:35.905Z,9.00
2017-10-11T16:06:02.105Z,8.80
2017-10-11T16:08:28.289Z,7.20
2017-10-11T16:10:55.264Z,7.33
2017-10-11T16:13:21.452Z,7.90
2017-10-11T16:15:48.469Z,7.90
2017-10-11T16:18:14.664Z,7.10
2017-10-11T16:20:40.865Z,9.70
2017-10-11T16:23:07.785Z,7.20
2017-10-11T16:25:34.005Z,12.03
2017-10-11T16:28:00.333Z,6.47
2017-10-11T16:30:26.648Z,9.40
2017-10-11T16:32:52.854Z,6.57
2017-10-11T16:35:19.246Z,10.77
2017-10-11T16:37:46.251Z,12.10
2017-10-11T16:40:12.485Z,6.97
2017-10-11T16:42:38.673Z,7.30
2017-10-11T16:45:04.932Z,7.67
2017-10-11T16:47:31.182Z,13.03
2017-10-11T16:49:57.389Z,7.33
2017-10-11T16:52:23.603Z,8.37
2017-10-11T16:54:49.832Z,8.20
2017-10-11T16:57:16.014Z,9.10
2017-10-11T16:59:43.021Z,10.50
2017-10-11T17:02:09.208Z,7.20
2017-10-11T17:04:35.458Z,10.20
2017-10-11T17:07:01.653Z,12.67
2017-10-11T17:09:28.605Z,10.93
2017-10-11T17:11:55.573Z,13.13
2017-10-11T17:14:21.829Z,10.60
2017-10-11T17:16:48.753Z,8.50
2017-10-11T17:19:15.253Z,9.30
2017-10-11T17:21:42.212Z,12.70
2017-10-11T17:24:08.400Z,8.50
2017-10-11T17:26:34.706Z,10.03
2017-10-11T17:29:00.904Z,7.97
2017-10-11T17:31:27.133Z,9.37
2017-10-11T17:33:53.336Z,9.57
2017-10-11T17:36:20.289Z,7.97
2017-10-11T17:38:47.277Z,10.13
2017-10-11T17:41:13.513Z,8.70
2017-10-11T17:43:39.701Z,7.70
2017-10-11T17:46:05.926Z,9.47
2017-10-11T17:48:32.109Z,7.03
2017-10-11T17:50:58.409Z,8.40
2017-10-11T17:53:24.655Z,10.17
2017-10-11T17:55:50.846Z,7.60
2017-10-11T17:58:17.070Z,7.00
2017-10-11T18:00:43.264Z,6.33
2017-10-11T18:03:09.492Z,10.83
2017-10-11T18:05:35.669Z,10.77
2017-10-11T18:08:01.868Z,7.57
2017-10-11T18:10:29.134Z,9.43
2017-10-11T18:12:55.406Z,10.10
2017-10-11T18:15:21.600Z,7.53
2017-10-11T18:17:47.802Z,7.33
2017-10-11T18:20:14.733Z,10.33
2017-10-11T18:22:40.925Z,7.40
2017-10-11T18:25:07.147Z,7.60
2017-10-11T18:27:33.393Z,6.90
2017-10-11T18:29:59.598Z,14.00
2017-10-11T18:32:25.854Z,7.33
2017-10-11T18:34:52.041Z,7.03
2017-10-11T18:37:18.220Z,6.70
2017-10-11T18:39:44.433Z,6.13
2017-10-11T18:42:10.633Z,7.90
2017-10-11T18:44:36.833Z,6.63
2017-10-11T18:47:03.116Z,6.50
2017-10-11T18:49:29.316Z,6.10
2017-10-11T18:51:55.573Z,7.13
2017-10-11T18:54:21.788Z,7.97
2017-10-11T18:56:47.963Z,5.90
2017-10-11T18:59:14.933Z,6.97
2017-10-11T19:01:41.113Z,7.37
2017-10-11T19:04:07.345Z,6.63
2017-10-11T19:06:33.629Z,6.37
2017-10-11T19:08:59.877Z,10.70
2017-10-11T19:11:26.804Z,7.47
2017-10-11T19:13:53.051Z,7.80
2017-10-11T19:16:19.232Z,6.27
2017-10-11T19:18:46.257Z,5.90
2017-10-11T19:21:12.474Z,8.87
2017-10-11T19:23:38.916Z,7.93
2017-10-11T19:26:05.097Z,10.00
2017-10-11T19:28:31.309Z,8.77
2017-10-11T19:30:57.509Z,9.57
2017-10-11T19:33:24.453Z,6.27
2017-10-11T19:35:51.417Z,6.17
2017-10-11T19:38:17.629Z,6.23
2017-10-11T19:40:44.564Z,7.80
2017-10-11T19:43:10.770Z,8.50
2017-10-11T19:45:36.949Z,6.07
2017-10-11T19:48:03.175Z,8.57
2017-10-11T19:50:29.373Z,7.63
2017-10-11T19:52:55.572Z,6.50
2017-10-11T19:55:21.786Z,6.23
2017-10-11T19:57:47.990Z,6.80
2017-10-11T20:00:14.477Z,6.73
2017-10-11T20:02:40.688Z,8.57
2017-10-11T20:05:06.966Z,6.60
2017-10-11T20:07:33.962Z,8.77
2017-10-11T20:10:00.914Z,5.67
2017-10-11T20:12:27.877Z,6.60
2017-10-11T20:14:54.181Z,5.30
2017-10-11T20:17:20.375Z,5.40
2017-10-11T20:19:46.592Z,5.63
2017-10-11T20:22:12.773Z,6.20
2017-10-11T20:24:39.040Z,5.63
2017-10-11T20:27:05.988Z,6.20
2017-10-11T20:29:32.933Z,5.97
2017-10-11T20:31:59.881Z,4.37
2017-10-11T20:34:26.997Z,5.33
2017-10-11T20:36:53.200Z,4.87
2017-10-11T20:39:19.537Z,8.27
2017-10-11T20:41:45.869Z,8.43
2017-10-11T20:44:12.196Z,6.00
2017-10-11T20:46:38.420Z,4.80
2017-10-11T20:49:04.630Z,4.80
2017-10-11T20:51:30.848Z,5.70
2017-10-11T20:53:57.054Z,5.83
2017-10-11T20:56:23.998Z,5.00
2017-10-11T20:58:50.978Z,7.30
2017-10-11T21:01:17.205Z,5.17
2017-10-11T21:03:43.405Z,6.57
2017-10-11T21:06:10.329Z,9.20
2017-10-11T21:08:36.533Z,5.50
2017-10-11T21:11:02.717Z,5.67
2017-10-11T21:13:29.086Z,6.87
2017-10-11T21:15:55.268Z,5.40
2017-10-11T21:18:22.257Z,6.53
2017-10-11T21:20:48.448Z,8.73
2017-10-11T21:23:14.649Z,5.00
2017-10-11T21:25:40.821Z,6.43
2017-10-11T21:28:07.050Z,11.63
2017-10-11T21:30:33.283Z,6.73
2017-10-11T21:32:59.473Z,3.87
2017-10-11T21:35:26.473Z,4.73
2017-10-11T21:37:52.886Z,5.20
2017-10-11T21:40:19.098Z,3.77
2017-10-11T21:42:45.276Z,5.60
2017-10-11T21:45:11.506Z,6.33
2017-10-11T21:47:38.562Z,5.40
2017-10-11T21:50:04.773Z,4.83
2017-10-11T21:52:30.949Z,3.70
2017-10-11T21:54:57.141Z,4.00
2017-10-11T21:57:24.237Z,4.03
2017-10-11T21:59:50.445Z,3.73
2017-10-11T22:02:17.378Z,4.03
2017-10-11T22:04:44.501Z,7.37
2017-10-11T22:07:10.691Z,4.57
2017-10-11T22:09:36.963Z,5.00
2017-10-11T22:12:03.161Z,8.07
2017-10-11T22:14:29.353Z,3.23
2017-10-11T22:16:56.273Z,4.20
2017-10-11T22:19:22.472Z,5.27
2017-10-11T22:21:48.784Z,3.90
2017-10-11T22:24:15.020Z,5.17
2017-10-11T22:26:41.192Z,4.07
2017-10-11T22:29:07.406Z,4.03
2017-10-11T22:31:33.625Z,4.17
2017-10-11T22:33:59.834Z,5.07
2017-10-11T22:36:26.160Z,4.07
2017-10-11T22:38:52.370Z,9.30
2017-10-11T22:41:18.550Z,7.00
2017-10-11T22:43:44.750Z,3.67
2017-10-11T22:46:10.963Z,4.10
2017-10-11T22:48:37.181Z,4.10
2017-10-11T22:51:04.188Z,4.20
2017-10-11T22:53:30.461Z,8.77
2017-10-11T22:55:56.661Z,4.90
2017-10-11T22:58:23.573Z,8.43
2017-10-11T23:00:49.778Z,8.93
2017-10-11T23:03:15.968Z,3.97
2017-10-11T23:05:42.913Z,3.90
2017-10-11T23:08:09.276Z,3.80
2017-10-11T23:10:35.540Z,4.73
2017-10-11T23:13:01.716Z,6.10
2017-10-11T23:15:27.928Z,8.50
2017-10-11T23:17:54.890Z,4.47
2017-10-11T23:20:21.093Z,4.00
2017-10-11T23:22:48.010Z,3.70
2017-10-11T23:25:14.349Z,4.50
2017-10-11T23:27:40.553Z,4.23
2017-10-11T23:30:06.785Z,6.90
2017-10-11T23:32:33.704Z,4.17
2017-10-11T23:35:00.775Z,3.50
2017-10-11T23:37:28.449Z,4.53
2017-10-11T23:39:54.865Z,2.50
2017-10-11T23:42:21.057Z,3.73
2017-10-11T23:44:47.425Z,3.40
2017-10-11T23:47:13.610Z,5.63
2017-10-11T23:49:39.889Z,3.43
2017-10-11T23:52:06.085Z,4.90
2017-10-11T23:54:32.272Z,3.43
2017-10-11T23:56:59.380Z,4.77
2017-10-11T23:59:25.585Z,4.47
